sensor_id;sensor_type;location;lat;lon;timestamp;noise_LAeq;noise_LA_min;noise_LA_max;noise_LA01;noise_LA95
77134;Laerm;25175;50.140;18.990;2023-11-19T00:02:12;45.13;33.73;67.83;;
77134;Laerm;25175;50.140;18.990;2023-11-19T00:05:18;38.74;33.82;54.22;;
77134;Laerm;25175;50.140;18.990;2023-11-19T00:08:40;36.51;33.33;41.32;;
77134;Laerm;25175;50.140;18.990;2023-11-19T00:11:45;36.91;33.65;42.83;;
77134;Laerm;25175;50.140;18.990;2023-11-19T00:14:50;42.05;33.27;60.63;;
77134;Laerm;25175;50.140;18.990;2023-11-19T00:17:58;39.46;33.80;54.01;;
77134;Laerm;25175;50.140;18.990;2023-11-19T00:21:06;38.29;33.79;49.18;;
77134;Laerm;25175;50.140;18.990;2023-11-19T00:24:13;41.30;34.37;58.84;;
77134;Laerm;25175;50.140;18.990;2023-11-19T00:27:17;36.86;33.95;43.27;;
77134;Laerm;25175;50.140;18.990;2023-11-19T00:30:23;35.76;33.38;39.30;;
77134;Laerm;25175;50.140;18.990;2023-11-19T00:33:31;36.55;33.93;40.11;;
77134;Laerm;25175;50.140;18.990;2023-11-19T00:36:36;36.82;34.49;39.83;;
77134;Laerm;25175;50.140;18.990;2023-11-19T00:39:41;38.28;34.76;42.93;;
77134;Laerm;25175;50.140;18.990;2023-11-19T00:42:46;41.11;34.23;55.49;;
77134;Laerm;25175;50.140;18.990;2023-11-19T00:45:51;40.76;34.08;55.99;;
77134;Laerm;25175;50.140;18.990;2023-11-19T00:48:59;39.42;34.17;52.64;;
77134;Laerm;25175;50.140;18.990;2023-11-19T00:52:04;36.02;33.61;39.22;;
77134;Laerm;25175;50.140;18.990;2023-11-19T00:55:09;35.37;33.34;42.10;;
77134;Laerm;25175;50.140;18.990;2023-11-19T00:58:15;35.90;33.30;39.53;;
77134;Laerm;25175;50.140;18.990;2023-11-19T01:01:21;35.82;33.34;41.96;;
77134;Laerm;25175;50.140;18.990;2023-11-19T01:04:30;35.94;33.80;38.77;;
77134;Laerm;25175;50.140;18.990;2023-11-19T01:07:38;37.10;33.82;43.94;;
77134;Laerm;25175;50.140;18.990;2023-11-19T01:10:42;36.17;33.46;38.75;;
77134;Laerm;25175;50.140;18.990;2023-11-19T01:13:48;36.73;34.06;39.27;;
77134;Laerm;25175;50.140;18.990;2023-11-19T01:16:52;40.52;33.61;58.05;;
77134;Laerm;25175;50.140;18.990;2023-11-19T01:20:01;36.55;33.82;39.41;;
77134;Laerm;25175;50.140;18.990;2023-11-19T01:23:08;37.96;35.07;57.93;;
77134;Laerm;25175;50.140;18.990;2023-11-19T01:26:13;38.24;35.45;55.95;;
77134;Laerm;25175;50.140;18.990;2023-11-19T01:29:18;37.84;33.86;49.03;;
77134;Laerm;25175;50.140;18.990;2023-11-19T01:32:23;36.52;34.06;56.52;;
77134;Laerm;25175;50.140;18.990;2023-11-19T01:35:30;40.15;34.58;58.08;;
77134;Laerm;25175;50.140;18.990;2023-11-19T01:38:36;38.48;34.79;49.78;;
77134;Laerm;25175;50.140;18.990;2023-11-19T01:41:41;37.62;34.93;40.90;;
77134;Laerm;25175;50.140;18.990;2023-11-19T01:44:58;37.01;34.77;39.51;;
77134;Laerm;25175;50.140;18.990;2023-11-19T01:48:04;39.95;35.45;53.02;;
77134;Laerm;25175;50.140;18.990;2023-11-19T01:51:17;38.19;35.36;41.97;;
77134;Laerm;25175;50.140;18.990;2023-11-19T01:54:45;39.07;35.83;42.90;;
77134;Laerm;25175;50.140;18.990;2023-11-19T01:57:55;38.56;34.76;47.86;;
77134;Laerm;25175;50.140;18.990;2023-11-19T02:01:05;37.75;33.83;55.54;;
77134;Laerm;25175;50.140;18.990;2023-11-19T02:04:28;36.40;33.83;39.83;;
77134;Laerm;25175;50.140;18.990;2023-11-19T02:07:36;38.40;34.55;50.32;;
77134;Laerm;25175;50.140;18.990;2023-11-19T02:10:41;37.63;34.57;40.93;;
77134;Laerm;25175;50.140;18.990;2023-11-19T02:13:46;37.36;34.28;44.98;;
77134;Laerm;25175;50.140;18.990;2023-11-19T02:16:52;40.67;34.18;55.87;;
77134;Laerm;25175;50.140;18.990;2023-11-19T02:19:56;38.19;33.74;49.86;;
77134;Laerm;25175;50.140;18.990;2023-11-19T02:23:06;38.45;34.52;43.45;;
77134;Laerm;25175;50.140;18.990;2023-11-19T02:26:24;38.46;35.36;41.92;;
77134;Laerm;25175;50.140;18.990;2023-11-19T02:29:35;38.10;34.48;42.30;;
77134;Laerm;25175;50.140;18.990;2023-11-19T02:32:41;36.67;34.22;39.37;;
77134;Laerm;25175;50.140;18.990;2023-11-19T02:35:47;36.96;34.24;40.55;;
77134;Laerm;25175;50.140;18.990;2023-11-19T02:38:53;37.71;34.74;40.87;;
77134;Laerm;25175;50.140;18.990;2023-11-19T02:41:57;38.98;36.11;51.97;;
77134;Laerm;25175;50.140;18.990;2023-11-19T02:45:26;38.90;34.74;43.26;;
77134;Laerm;25175;50.140;18.990;2023-11-19T02:48:32;39.58;34.50;55.60;;
77134;Laerm;25175;50.140;18.990;2023-11-19T02:51:37;37.18;34.74;45.95;;
77134;Laerm;25175;50.140;18.990;2023-11-19T02:54:43;38.42;35.58;59.50;;
77134;Laerm;25175;50.140;18.990;2023-11-19T02:57:48;39.30;35.86;43.94;;
77134;Laerm;25175;50.140;18.990;2023-11-19T03:00:57;37.14;34.27;41.37;;
77134;Laerm;25175;50.140;18.990;2023-11-19T03:04:12;36.36;33.76;41.59;;
77134;Laerm;25175;50.140;18.990;2023-11-19T03:07:46;37.56;34.29;44.00;;
77134;Laerm;25175;50.140;18.990;2023-11-19T03:11:15;37.31;33.65;56.40;;
77134;Laerm;25175;50.140;18.990;2023-11-19T03:14:40;37.07;34.46;52.94;;
77134;Laerm;25175;50.140;18.990;2023-11-19T03:18:10;36.39;34.22;41.59;;
77134;Laerm;25175;50.140;18.990;2023-11-19T03:21:14;36.73;34.11;41.61;;
77134;Laerm;25175;50.140;18.990;2023-11-19T03:24:19;37.23;33.70;51.95;;
77134;Laerm;25175;50.140;18.990;2023-11-19T03:27:24;35.81;33.56;41.03;;
77134;Laerm;25175;50.140;18.990;2023-11-19T03:33:58;37.27;34.80;40.76;;
77134;Laerm;25175;50.140;18.990;2023-11-19T03:37:05;36.60;34.04;39.22;;
77134;Laerm;25175;50.140;18.990;2023-11-19T03:40:11;38.27;34.15;53.49;;
77134;Laerm;25175;50.140;18.990;2023-11-19T03:44:06;36.70;33.42;42.07;;
77134;Laerm;25175;50.140;18.990;2023-11-19T03:47:11;36.98;34.38;39.70;;
77134;Laerm;25175;50.140;18.990;2023-11-19T03:50:19;37.65;34.40;41.16;;
77134;Laerm;25175;50.140;18.990;2023-11-19T03:53:24;36.85;34.48;39.56;;
77134;Laerm;25175;50.140;18.990;2023-11-19T03:56:29;36.96;33.73;41.68;;
77134;Laerm;25175;50.140;18.990;2023-11-19T03:59:34;36.49;33.69;44.53;;
77134;Laerm;25175;50.140;18.990;2023-11-19T04:02:40;38.23;34.56;49.70;;
77134;Laerm;25175;50.140;18.990;2023-11-19T04:05:47;38.41;34.96;44.47;;
77134;Laerm;25175;50.140;18.990;2023-11-19T04:08:52;38.10;34.90;41.47;;
77134;Laerm;25175;50.140;18.990;2023-11-19T04:11:57;38.18;34.40;52.19;;
77134;Laerm;25175;50.140;18.990;2023-11-19T04:15:04;37.05;34.55;39.65;;
77134;Laerm;25175;50.140;18.990;2023-11-19T04:18:09;39.47;34.69;55.51;;
77134;Laerm;25175;50.140;18.990;2023-11-19T04:21:17;38.42;34.55;51.35;;
77134;Laerm;25175;50.140;18.990;2023-11-19T04:24:22;37.49;34.90;40.29;;
77134;Laerm;25175;50.140;18.990;2023-11-19T04:27:27;37.95;35.40;41.44;;
77134;Laerm;25175;50.140;18.990;2023-11-19T04:30:32;37.36;34.65;41.07;;
77134;Laerm;25175;50.140;18.990;2023-11-19T04:33:38;37.50;34.84;42.36;;
77134;Laerm;25175;50.140;18.990;2023-11-19T04:36:45;39.63;35.23;54.20;;
77134;Laerm;25175;50.140;18.990;2023-11-19T04:39:51;39.37;34.92;50.27;;
77134;Laerm;25175;50.140;18.990;2023-11-19T04:42:55;37.55;34.60;39.87;;
77134;Laerm;25175;50.140;18.990;2023-11-19T04:46:03;37.27;34.64;44.30;;
77134;Laerm;25175;50.140;18.990;2023-11-19T04:49:08;38.73;34.66;53.05;;
77134;Laerm;25175;50.140;18.990;2023-11-19T04:52:16;38.45;34.76;47.60;;
77134;Laerm;25175;50.140;18.990;2023-11-19T04:55:20;37.24;34.14;49.89;;
77134;Laerm;25175;50.140;18.990;2023-11-19T04:58:25;37.84;35.06;42.19;;
77134;Laerm;25175;50.140;18.990;2023-11-19T05:01:30;37.99;34.31;55.50;;
77134;Laerm;25175;50.140;18.990;2023-11-19T05:04:35;37.82;33.99;54.19;;
77134;Laerm;25175;50.140;18.990;2023-11-19T05:07:57;37.49;34.62;46.47;;
77134;Laerm;25175;50.140;18.990;2023-11-19T05:11:02;37.67;34.91;46.39;;
77134;Laerm;25175;50.140;18.990;2023-11-19T05:14:07;37.89;35.05;42.60;;
77134;Laerm;25175;50.140;18.990;2023-11-19T05:17:14;38.95;35.19;44.37;;
77134;Laerm;25175;50.140;18.990;2023-11-19T05:20:19;42.12;34.51;56.35;;
77134;Laerm;25175;50.140;18.990;2023-11-19T05:23:28;41.63;35.77;57.83;;
77134;Laerm;25175;50.140;18.990;2023-11-19T05:26:32;38.03;34.71;41.64;;
77134;Laerm;25175;50.140;18.990;2023-11-19T05:29:38;42.37;35.82;52.97;;
77134;Laerm;25175;50.140;18.990;2023-11-19T05:32:42;43.29;37.03;51.18;;
77134;Laerm;25175;50.140;18.990;2023-11-19T05:35:48;41.73;35.10;57.35;;
77134;Laerm;25175;50.140;18.990;2023-11-19T05:38:55;38.71;34.81;44.05;;
77134;Laerm;25175;50.140;18.990;2023-11-19T05:42:00;40.49;35.65;57.18;;
77134;Laerm;25175;50.140;18.990;2023-11-19T05:45:06;40.37;35.99;55.21;;
77134;Laerm;25175;50.140;18.990;2023-11-19T05:48:12;39.84;36.05;51.97;;
77134;Laerm;25175;50.140;18.990;2023-11-19T05:51:17;38.83;36.11;42.52;;
77134;Laerm;25175;50.140;18.990;2023-11-19T05:54:25;40.13;35.74;58.90;;
77134;Laerm;25175;50.140;18.990;2023-11-19T05:57:29;39.69;35.27;52.32;;
77134;Laerm;25175;50.140;18.990;2023-11-19T06:00:36;38.68;35.46;43.63;;
77134;Laerm;25175;50.140;18.990;2023-11-19T06:03:41;43.09;35.79;57.39;;
77134;Laerm;25175;50.140;18.990;2023-11-19T06:06:51;39.60;35.91;52.38;;
77134;Laerm;25175;50.140;18.990;2023-11-19T06:09:59;39.60;35.17;49.13;;
77134;Laerm;25175;50.140;18.990;2023-11-19T06:13:05;41.06;35.61;55.72;;
77134;Laerm;25175;50.140;18.990;2023-11-19T06:16:11;39.80;34.84;54.08;;
77134;Laerm;25175;50.140;18.990;2023-11-19T06:19:17;39.29;35.36;54.80;;
77134;Laerm;25175;50.140;18.990;2023-11-19T06:22:21;46.73;36.34;57.59;;
77134;Laerm;25175;50.140;18.990;2023-11-19T06:25:30;42.17;36.45;56.75;;
77134;Laerm;25175;50.140;18.990;2023-11-19T06:28:36;41.67;35.40;57.60;;
77134;Laerm;25175;50.140;18.990;2023-11-19T06:31:42;42.75;34.45;55.54;;
77134;Laerm;25175;50.140;18.990;2023-11-19T06:34:46;39.11;35.80;47.40;;
77134;Laerm;25175;50.140;18.990;2023-11-19T06:37:52;40.21;35.89;53.24;;
77134;Laerm;25175;50.140;18.990;2023-11-19T06:41:00;39.34;36.45;47.73;;
77134;Laerm;25175;50.140;18.990;2023-11-19T06:44:05;42.91;35.78;58.17;;
77134;Laerm;25175;50.140;18.990;2023-11-19T06:47:10;39.97;35.72;51.29;;
77134;Laerm;25175;50.140;18.990;2023-11-19T06:50:16;40.92;35.16;53.06;;
77134;Laerm;25175;50.140;18.990;2023-11-19T06:53:20;43.84;34.58;68.84;;
77134;Laerm;25175;50.140;18.990;2023-11-19T06:56:28;41.71;34.91;55.65;;
77134;Laerm;25175;50.140;18.990;2023-11-19T06:59:33;40.57;34.49;54.54;;
77134;Laerm;25175;50.140;18.990;2023-11-19T07:02:38;45.30;35.89;59.56;;
77134;Laerm;25175;50.140;18.990;2023-11-19T07:05:43;40.11;35.13;51.10;;
77134;Laerm;25175;50.140;18.990;2023-11-19T07:08:48;39.86;35.28;59.48;;
77134;Laerm;25175;50.140;18.990;2023-11-19T07:11:56;42.02;35.42;52.78;;
77134;Laerm;25175;50.140;18.990;2023-11-19T07:15:02;42.12;35.11;55.47;;
77134;Laerm;25175;50.140;18.990;2023-11-19T07:18:07;38.74;35.20;53.50;;
77134;Laerm;25175;50.140;18.990;2023-11-19T07:21:14;37.68;34.81;50.20;;
77134;Laerm;25175;50.140;18.990;2023-11-19T07:24:18;39.47;34.94;53.87;;
77134;Laerm;25175;50.140;18.990;2023-11-19T07:27:26;40.44;35.02;52.50;;
77134;Laerm;25175;50.140;18.990;2023-11-19T07:30:31;41.07;35.21;56.74;;
77134;Laerm;25175;50.140;18.990;2023-11-19T07:33:36;41.40;35.14;55.18;;
77134;Laerm;25175;50.140;18.990;2023-11-19T07:36:41;41.09;34.84;57.09;;
77134;Laerm;25175;50.140;18.990;2023-11-19T07:39:46;38.34;35.02;49.98;;
77134;Laerm;25175;50.140;18.990;2023-11-19T07:42:53;40.84;35.34;56.70;;
77134;Laerm;25175;50.140;18.990;2023-11-19T07:45:59;39.57;34.90;59.92;;
77134;Laerm;25175;50.140;18.990;2023-11-19T07:49:05;37.95;34.86;43.35;;
77134;Laerm;25175;50.140;18.990;2023-11-19T07:52:11;41.07;35.31;53.81;;
77134;Laerm;25175;50.140;18.990;2023-11-19T07:55:16;43.91;35.52;60.16;;
77134;Laerm;25175;50.140;18.990;2023-11-19T07:58:24;43.42;35.46;59.16;;
77134;Laerm;25175;50.140;18.990;2023-11-19T08:01:55;41.74;35.55;56.94;;
77134;Laerm;25175;50.140;18.990;2023-11-19T08:05:01;42.93;35.46;58.63;;
77134;Laerm;25175;50.140;18.990;2023-11-19T08:08:05;44.36;35.38;64.90;;
77134;Laerm;25175;50.140;18.990;2023-11-19T08:11:11;41.97;35.58;56.62;;
77134;Laerm;25175;50.140;18.990;2023-11-19T08:14:19;39.70;35.32;64.08;;
77134;Laerm;25175;50.140;18.990;2023-11-19T08:17:24;38.44;35.84;50.72;;
77134;Laerm;25175;50.140;18.990;2023-11-19T08:20:29;43.87;35.76;56.37;;
77134;Laerm;25175;50.140;18.990;2023-11-19T08:23:35;40.49;35.02;52.48;;
77134;Laerm;25175;50.140;18.990;2023-11-19T08:26:40;44.58;36.05;61.76;;
77134;Laerm;25175;50.140;18.990;2023-11-19T08:29:48;42.96;36.13;59.83;;
77134;Laerm;25175;50.140;18.990;2023-11-19T08:32:53;42.02;36.11;54.78;;
77134;Laerm;25175;50.140;18.990;2023-11-19T08:36:01;45.75;37.03;60.85;;
77134;Laerm;25175;50.140;18.990;2023-11-19T08:39:06;43.30;35.68;61.96;;
77134;Laerm;25175;50.140;18.990;2023-11-19T08:42:11;44.10;35.56;61.77;;
77134;Laerm;25175;50.140;18.990;2023-11-19T08:45:43;42.77;35.76;56.54;;
77134;Laerm;25175;50.140;18.990;2023-11-19T08:49:20;42.96;36.23;61.90;;
77134;Laerm;25175;50.140;18.990;2023-11-19T08:52:24;41.60;36.09;54.63;;
77134;Laerm;25175;50.140;18.990;2023-11-19T08:55:32;45.43;37.11;58.75;;
77134;Laerm;25175;50.140;18.990;2023-11-19T08:58:38;42.54;36.26;57.03;;
77134;Laerm;25175;50.140;18.990;2023-11-19T09:02:06;43.20;36.37;58.86;;
77134;Laerm;25175;50.140;18.990;2023-11-19T09:05:36;47.48;37.39;69.39;;
77134;Laerm;25175;50.140;18.990;2023-11-19T09:08:42;43.41;36.75;60.88;;
77134;Laerm;25175;50.140;18.990;2023-11-19T09:11:56;39.72;36.11;50.47;;
77134;Laerm;25175;50.140;18.990;2023-11-19T09:15:01;41.56;36.44;62.24;;
77134;Laerm;25175;50.140;18.990;2023-11-19T09:22:08;44.41;37.39;71.07;;
77134;Laerm;25175;50.140;18.990;2023-11-19T09:25:13;43.62;36.33;56.24;;
77134;Laerm;25175;50.140;18.990;2023-11-19T09:28:52;40.70;36.04;52.38;;
77134;Laerm;25175;50.140;18.990;2023-11-19T09:31:57;44.14;36.37;66.26;;
77134;Laerm;25175;50.140;18.990;2023-11-19T09:35:04;42.54;36.83;63.81;;
77134;Laerm;25175;50.140;18.990;2023-11-19T09:38:12;45.78;37.40;58.57;;
77134;Laerm;25175;50.140;18.990;2023-11-19T09:41:18;44.61;36.85;58.41;;
77134;Laerm;25175;50.140;18.990;2023-11-19T09:44:24;40.82;36.36;54.43;;
77134;Laerm;25175;50.140;18.990;2023-11-19T09:47:30;44.14;36.28;60.21;;
77134;Laerm;25175;50.140;18.990;2023-11-19T09:50:34;41.59;36.12;56.92;;
77134;Laerm;25175;50.140;18.990;2023-11-19T09:53:42;44.83;36.52;64.12;;
77134;Laerm;25175;50.140;18.990;2023-11-19T09:56:48;43.53;36.72;59.14;;
77134;Laerm;25175;50.140;18.990;2023-11-19T10:03:26;44.24;36.89;60.29;;
77134;Laerm;25175;50.140;18.990;2023-11-19T10:06:32;47.40;36.76;66.93;;
77134;Laerm;25175;50.140;18.990;2023-11-19T10:09:48;43.98;36.29;65.94;;
77134;Laerm;25175;50.140;18.990;2023-11-19T10:12:55;43.72;36.06;57.29;;
77134;Laerm;25175;50.140;18.990;2023-11-19T10:16:28;43.30;36.44;60.69;;
77134;Laerm;25175;50.140;18.990;2023-11-19T10:19:44;41.78;36.17;58.13;;
77134;Laerm;25175;50.140;18.990;2023-11-19T10:23:13;42.39;36.07;56.10;;
77134;Laerm;25175;50.140;18.990;2023-11-19T10:26:21;43.28;36.29;55.68;;
77134;Laerm;25175;50.140;18.990;2023-11-19T10:29:26;44.74;36.38;56.21;;
77134;Laerm;25175;50.140;18.990;2023-11-19T10:32:37;45.77;37.19;61.62;;
77134;Laerm;25175;50.140;18.990;2023-11-19T10:35:53;43.29;35.72;62.82;;
77134;Laerm;25175;50.140;18.990;2023-11-19T10:38:59;43.66;36.18;62.52;;
77134;Laerm;25175;50.140;18.990;2023-11-19T10:42:45;45.54;36.86;60.98;;
77134;Laerm;25175;50.140;18.990;2023-11-19T10:45:51;45.75;37.45;62.86;;
77134;Laerm;25175;50.140;18.990;2023-11-19T10:48:56;44.74;36.29;56.02;;
77134;Laerm;25175;50.140;18.990;2023-11-19T10:52:05;44.21;35.86;57.30;;
77134;Laerm;25175;50.140;18.990;2023-11-19T10:55:12;45.67;36.95;64.91;;
77134;Laerm;25175;50.140;18.990;2023-11-19T10:58:23;47.64;36.97;58.84;;
77134;Laerm;25175;50.140;18.990;2023-11-19T11:01:37;46.03;36.84;59.45;;
77134;Laerm;25175;50.140;18.990;2023-11-19T11:04:50;44.55;36.18;56.52;;
77134;Laerm;25175;50.140;18.990;2023-11-19T11:08:20;45.37;35.99;56.70;;
77134;Laerm;25175;50.140;18.990;2023-11-19T11:11:47;43.17;36.23;59.82;;
77134;Laerm;25175;50.140;18.990;2023-11-19T11:14:55;45.24;35.74;69.69;;
77134;Laerm;25175;50.140;18.990;2023-11-19T11:18:29;68.16;36.74;78.08;;
77134;Laerm;25175;50.140;18.990;2023-11-19T11:21:36;71.66;37.56;77.34;;
77134;Laerm;25175;50.140;18.990;2023-11-19T11:25:23;70.83;36.28;77.75;;
77134;Laerm;25175;50.140;18.990;2023-11-19T11:28:52;41.72;35.87;57.97;;
77134;Laerm;25175;50.140;18.990;2023-11-19T11:32:40;43.43;36.16;62.38;;
77134;Laerm;25175;50.140;18.990;2023-11-19T11:36:03;44.45;36.38;61.56;;
77134;Laerm;25175;50.140;18.990;2023-11-19T11:42:47;45.08;37.20;64.61;;
77134;Laerm;25175;50.140;18.990;2023-11-19T11:45:54;45.03;36.70;59.30;;
77134;Laerm;25175;50.140;18.990;2023-11-19T11:49:04;44.55;36.85;58.41;;
77134;Laerm;25175;50.140;18.990;2023-11-19T11:52:10;43.95;37.03;58.02;;
77134;Laerm;25175;50.140;18.990;2023-11-19T11:55:17;39.48;36.91;45.60;;
77134;Laerm;25175;50.140;18.990;2023-11-19T11:58:29;47.50;36.61;61.47;;
77134;Laerm;25175;50.140;18.990;2023-11-19T12:01:35;44.57;37.27;59.19;;
77134;Laerm;25175;50.140;18.990;2023-11-19T12:05:17;48.08;37.86;61.56;;
77134;Laerm;25175;50.140;18.990;2023-11-19T12:08:27;49.23;37.96;70.00;;
77134;Laerm;25175;50.140;18.990;2023-11-19T12:11:34;50.15;37.97;62.41;;
77134;Laerm;25175;50.140;18.990;2023-11-19T12:15:20;44.61;36.97;61.66;;
77134;Laerm;25175;50.140;18.990;2023-11-19T12:18:30;44.19;37.52;64.93;;
77134;Laerm;25175;50.140;18.990;2023-11-19T12:21:38;45.29;38.51;63.86;;
77134;Laerm;25175;50.140;18.990;2023-11-19T12:24:44;50.50;37.92;71.25;;
77134;Laerm;25175;50.140;18.990;2023-11-19T12:27:53;44.05;37.87;56.37;;
77134;Laerm;25175;50.140;18.990;2023-11-19T12:31:30;45.86;37.93;59.64;;
77134;Laerm;25175;50.140;18.990;2023-11-19T12:34:37;44.64;37.52;61.72;;
77134;Laerm;25175;50.140;18.990;2023-11-19T12:37:48;49.76;37.92;66.81;;
77134;Laerm;25175;50.140;18.990;2023-11-19T12:41:07;44.11;37.43;57.86;;
77134;Laerm;25175;50.140;18.990;2023-11-19T12:44:39;45.14;37.37;64.07;;
77134;Laerm;25175;50.140;18.990;2023-11-19T12:48:08;45.63;37.53;62.85;;
77134;Laerm;25175;50.140;18.990;2023-11-19T12:51:15;46.10;37.60;62.72;;
77134;Laerm;25175;50.140;18.990;2023-11-19T12:54:48;45.03;37.50;62.13;;
77134;Laerm;25175;50.140;18.990;2023-11-19T12:57:56;45.63;37.33;62.94;;
77134;Laerm;25175;50.140;18.990;2023-11-19T13:05:24;43.53;37.48;59.50;;
77134;Laerm;25175;50.140;18.990;2023-11-19T13:08:43;43.51;37.49;59.06;;
77134;Laerm;25175;50.140;18.990;2023-11-19T13:11:59;42.83;37.52;60.57;;
77134;Laerm;25175;50.140;18.990;2023-11-19T13:15:25;45.35;37.41;62.23;;
77134;Laerm;25175;50.140;18.990;2023-11-19T13:18:31;44.96;38.58;58.18;;
77134;Laerm;25175;50.140;18.990;2023-11-19T13:21:36;44.67;37.86;63.56;;
77134;Laerm;25175;50.140;18.990;2023-11-19T13:25:06;45.36;37.64;66.56;;
77134;Laerm;25175;50.140;18.990;2023-11-19T13:28:34;45.07;37.95;58.47;;
77134;Laerm;25175;50.140;18.990;2023-11-19T13:31:48;45.02;38.34;57.11;;
77134;Laerm;25175;50.140;18.990;2023-11-19T13:34:53;45.32;38.27;58.33;;
77134;Laerm;25175;50.140;18.990;2023-11-19T13:37:58;45.15;37.56;68.60;;
77134;Laerm;25175;50.140;18.990;2023-11-19T13:41:04;43.43;37.76;59.69;;
77134;Laerm;25175;50.140;18.990;2023-11-19T13:44:16;47.53;38.74;64.72;;
77134;Laerm;25175;50.140;18.990;2023-11-19T13:47:20;44.90;38.37;62.89;;
77134;Laerm;25175;50.140;18.990;2023-11-19T13:50:28;46.32;38.57;59.23;;
77134;Laerm;25175;50.140;18.990;2023-11-19T13:53:34;46.79;38.55;60.15;;
77134;Laerm;25175;50.140;18.990;2023-11-19T13:56:41;44.59;38.74;62.72;;
77134;Laerm;25175;50.140;18.990;2023-11-19T13:59:51;45.38;38.21;59.27;;
77134;Laerm;25175;50.140;18.990;2023-11-19T14:02:58;45.56;39.57;60.44;;
77134;Laerm;25175;50.140;18.990;2023-11-19T14:06:15;44.35;38.44;58.85;;
77134;Laerm;25175;50.140;18.990;2023-11-19T14:09:24;45.99;38.49;66.60;;
77134;Laerm;25175;50.140;18.990;2023-11-19T14:12:57;44.67;38.02;63.26;;
77134;Laerm;25175;50.140;18.990;2023-11-19T14:16:06;41.54;38.00;59.83;;
77134;Laerm;25175;50.140;18.990;2023-11-19T14:19:15;46.26;37.92;61.73;;
77134;Laerm;25175;50.140;18.990;2023-11-19T14:22:20;45.38;38.46;61.47;;
77134;Laerm;25175;50.140;18.990;2023-11-19T14:25:26;42.87;38.23;58.29;;
77134;Laerm;25175;50.140;18.990;2023-11-19T14:28:32;42.34;37.93;65.95;;
77134;Laerm;25175;50.140;18.990;2023-11-19T14:31:39;47.01;38.20;69.34;;
77134;Laerm;25175;50.140;18.990;2023-11-19T14:34:45;47.71;38.25;75.45;;
77134;Laerm;25175;50.140;18.990;2023-11-19T14:37:50;48.20;38.51;77.63;;
77134;Laerm;25175;50.140;18.990;2023-11-19T14:40:55;43.95;37.85;58.52;;
77134;Laerm;25175;50.140;18.990;2023-11-19T14:44:01;46.35;38.18;70.97;;
77134;Laerm;25175;50.140;18.990;2023-11-19T14:47:09;45.28;38.21;61.88;;
77134;Laerm;25175;50.140;18.990;2023-11-19T14:50:13;45.85;37.83;62.16;;
77134;Laerm;25175;50.140;18.990;2023-11-19T14:53:19;48.53;38.83;70.79;;
77134;Laerm;25175;50.140;18.990;2023-11-19T14:56:26;44.93;38.71;61.37;;
77134;Laerm;25175;50.140;18.990;2023-11-19T14:59:31;52.58;38.25;74.63;;
77134;Laerm;25175;50.140;18.990;2023-11-19T15:02:59;53.97;39.15;76.83;;
77134;Laerm;25175;50.140;18.990;2023-11-19T15:06:07;46.82;39.25;68.49;;
77134;Laerm;25175;50.140;18.990;2023-11-19T15:09:13;43.56;38.32;59.27;;
77134;Laerm;25175;50.140;18.990;2023-11-19T15:12:19;53.39;40.06;76.53;;
77134;Laerm;25175;50.140;18.990;2023-11-19T15:15:26;50.46;38.74;69.84;;
77134;Laerm;25175;50.140;18.990;2023-11-19T15:18:37;45.89;39.11;63.22;;
77134;Laerm;25175;50.140;18.990;2023-11-19T15:21:42;47.64;39.77;65.92;;
77134;Laerm;25175;50.140;18.990;2023-11-19T15:24:47;49.24;38.01;70.65;;
77134;Laerm;25175;50.140;18.990;2023-11-19T15:27:54;44.40;38.11;65.01;;
77134;Laerm;25175;50.140;18.990;2023-11-19T15:30:59;50.08;38.08;69.79;;
77134;Laerm;25175;50.140;18.990;2023-11-19T15:34:58;45.38;37.77;60.06;;
77134;Laerm;25175;50.140;18.990;2023-11-19T15:38:03;43.85;37.88;64.82;;
77134;Laerm;25175;50.140;18.990;2023-11-19T15:41:12;45.43;38.08;66.19;;
77134;Laerm;25175;50.140;18.990;2023-11-19T15:44:18;44.69;38.51;61.26;;
77134;Laerm;25175;50.140;18.990;2023-11-19T15:47:41;45.29;37.49;67.96;;
77134;Laerm;25175;50.140;18.990;2023-11-19T15:51:03;44.38;37.47;59.96;;
77134;Laerm;25175;50.140;18.990;2023-11-19T15:54:11;48.45;38.24;70.09;;
77134;Laerm;25175;50.140;18.990;2023-11-19T15:57:44;53.75;38.74;75.88;;
77134;Laerm;25175;50.140;18.990;2023-11-19T16:00:50;45.69;38.01;64.34;;
77134;Laerm;25175;50.140;18.990;2023-11-19T16:03:56;47.65;37.90;65.57;;
77134;Laerm;25175;50.140;18.990;2023-11-19T16:07:33;43.60;37.29;55.76;;
77134;Laerm;25175;50.140;18.990;2023-11-19T17:49:52;43.85;38.23;62.32;;
77134;Laerm;25175;50.140;18.990;2023-11-19T17:53:17;49.19;37.99;71.51;;
77134;Laerm;25175;50.140;18.990;2023-11-19T17:57:11;45.96;37.35;65.06;;
77134;Laerm;25175;50.140;18.990;2023-11-19T18:18:46;48.15;37.68;69.34;;
77134;Laerm;25175;50.140;18.990;2023-11-19T18:23:01;48.60;37.73;69.12;;
77134;Laerm;25175;50.140;18.990;2023-11-19T18:27:02;45.78;37.60;66.47;;
77134;Laerm;25175;50.140;18.990;2023-11-19T18:45:14;49.64;37.81;73.92;;
77134;Laerm;25175;50.140;18.990;2023-11-19T18:49:24;47.02;37.40;69.77;;
77134;Laerm;25175;50.140;18.990;2023-11-19T19:10:38;43.77;37.99;64.38;;
77134;Laerm;25175;50.140;18.990;2023-11-19T19:19:27;46.38;37.41;69.42;;
77134;Laerm;25175;50.140;18.990;2023-11-19T19:23:32;46.84;37.62;70.51;;
77134;Laerm;25175;50.140;18.990;2023-11-19T19:32:20;50.29;37.54;74.71;;
77134;Laerm;25175;50.140;18.990;2023-11-19T19:58:25;43.87;36.22;63.42;;
77134;Laerm;25175;50.140;18.990;2023-11-19T20:27:17;44.15;38.92;61.77;;
77134;Laerm;25175;50.140;18.990;2023-11-19T21:03:01;43.09;36.60;59.33;;
77134;Laerm;25175;50.140;18.990;2023-11-19T21:06:59;48.74;35.56;71.25;;
77134;Laerm;25175;50.140;18.990;2023-11-19T21:32:55;41.03;35.94;58.99;;
77134;Laerm;25175;50.140;18.990;2023-11-19T21:54:34;40.28;35.30;60.98;;
77134;Laerm;25175;50.140;18.990;2023-11-19T22:17:18;41.88;35.83;68.04;;
77134;Laerm;25175;50.140;18.990;2023-11-19T22:30:16;41.31;35.54;61.92;;
77134;Laerm;25175;50.140;18.990;2023-11-19T23:27:28;42.60;34.33;68.41;;
77134;Laerm;25175;50.140;18.990;2023-11-19T23:33:02;39.19;34.48;58.57;;
77134;Laerm;25175;50.140;18.990;2023-11-19T23:46:09;40.23;34.68;60.10;;
77134;Laerm;25175;50.140;18.990;2023-11-19T23:50:02;39.04;34.85;59.96;;
77134;Laerm;25175;50.140;18.990;2023-11-19T23:54:01;38.82;35.21;57.30;;
